sensor_id;sensor_type;location;lat;lon;timestamp;pressure;altitude;pressure_sealevel;temperature;humidity
12594;BME280;6362;50.208;9.182;2023-03-19T00:02:07;99532.22;;;9.07;77.79
12594;BME280;6362;50.208;9.182;2023-03-19T00:04:33;99544.41;;;8.97;78.43
12594;BME280;6362;50.208;9.182;2023-03-19T00:06:58;99542.72;;;8.90;78.86
12594;BME280;6362;50.208;9.182;2023-03-19T00:09:24;99538.41;;;8.87;79.00
12594;BME280;6362;50.208;9.182;2023-03-19T00:11:50;99539.31;;;8.82;79.02
12594;BME280;6362;50.208;9.182;2023-03-19T00:14:16;99543.63;;;8.81;79.48
12594;BME280;6362;50.208;9.182;2023-03-19T00:16:41;99541.94;;;8.80;79.39
12594;BME280;6362;50.208;9.182;2023-03-19T00:19:07;99541.06;;;8.77;79.26
12594;BME280;6362;50.208;9.182;2023-03-19T00:21:34;99541.06;;;8.77;79.32
12594;BME280;6362;50.208;9.182;2023-03-19T00:24:00;99539.31;;;8.82;79.50
12594;BME280;6362;50.208;9.182;2023-03-19T00:26:33;99533.19;;;8.92;79.46
12594;BME280;6362;50.208;9.182;2023-03-19T00:28:59;99532.34;;;8.94;79.35
12594;BME280;6362;50.208;9.182;2023-03-19T00:31:25;99528.78;;;9.03;78.77
12594;BME280;6362;50.208;9.182;2023-03-19T00:33:51;99529.50;;;9.22;78.33
12594;BME280;6362;50.208;9.182;2023-03-19T00:36:17;99526.91;;;9.20;78.12
12594;BME280;6362;50.208;9.182;2023-03-19T00:38:44;99521.72;;;9.23;77.83
12594;BME280;6362;50.208;9.182;2023-03-19T00:41:11;99520.00;;;9.22;77.86
12594;BME280;6362;50.208;9.182;2023-03-19T00:43:36;99515.78;;;9.05;78.62
12594;BME280;6362;50.208;9.182;2023-03-19T00:46:03;99520.28;;;8.89;79.00
12594;BME280;6362;50.208;9.182;2023-03-19T00:48:29;99522.06;;;8.79;79.31
12594;BME280;6362;50.208;9.182;2023-03-19T00:50:54;99524.69;;;8.75;79.50
12594;BME280;6362;50.208;9.182;2023-03-19T00:53:20;99524.69;;;8.71;79.76
12594;BME280;6362;50.208;9.182;2023-03-19T00:55:45;99529.91;;;8.67;80.33
12594;BME280;6362;50.208;9.182;2023-03-19T00:58:11;99529.06;;;8.60;80.09
12594;BME280;6362;50.208;9.182;2023-03-19T01:00:37;99530.81;;;8.58;80.01
12594;BME280;6362;50.208;9.182;2023-03-19T01:03:04;99525.69;;;8.55;80.29
12594;BME280;6362;50.208;9.182;2023-03-19T01:05:31;99532.63;;;8.50;80.27
12594;BME280;6362;50.208;9.182;2023-03-19T01:07:56;99537.81;;;8.47;80.51
12594;BME280;6362;50.208;9.182;2023-03-19T01:10:23;99542.16;;;8.45;80.60
12594;BME280;6362;50.208;9.182;2023-03-19T01:12:49;99539.56;;;8.45;80.77
12594;BME280;6362;50.208;9.182;2023-03-19T01:15:15;99536.09;;;8.43;80.57
12594;BME280;6362;50.208;9.182;2023-03-19T01:17:41;99533.41;;;8.61;80.41
12594;BME280;6362;50.208;9.182;2023-03-19T01:20:09;99541.97;;;8.74;79.68
12594;BME280;6362;50.208;9.182;2023-03-19T01:22:40;99558.38;;;8.76;79.54
12594;BME280;6362;50.208;9.182;2023-03-19T01:25:08;99555.00;;;8.66;79.54
12594;BME280;6362;50.208;9.182;2023-03-19T01:27:34;99557.66;;;8.51;79.58
12594;BME280;6362;50.208;9.182;2023-03-19T01:30:00;99557.72;;;8.34;80.10
12594;BME280;6362;50.208;9.182;2023-03-19T01:32:25;99553.47;;;8.16;81.06
12594;BME280;6362;50.208;9.182;2023-03-19T01:34:51;99555.19;;;8.10;81.23
12594;BME280;6362;50.208;9.182;2023-03-19T01:37:18;99550.91;;;8.06;80.80
12594;BME280;6362;50.208;9.182;2023-03-19T01:39:43;99549.19;;;8.03;81.19
12594;BME280;6362;50.208;9.182;2023-03-19T01:42:09;99551.81;;;8.00;81.81
12594;BME280;6362;50.208;9.182;2023-03-19T01:44:37;99544.91;;;7.96;81.90
12594;BME280;6362;50.208;9.182;2023-03-19T01:47:16;99547.47;;;8.01;81.65
12594;BME280;6362;50.208;9.182;2023-03-19T01:49:42;99546.59;;;8.05;82.07
12594;BME280;6362;50.208;9.182;2023-03-19T01:52:11;99555.22;;;8.08;81.82
12594;BME280;6362;50.208;9.182;2023-03-19T01:54:38;99556.06;;;8.09;81.98
12594;BME280;6362;50.208;9.182;2023-03-19T01:57:08;99558.69;;;8.01;82.11
12594;BME280;6362;50.208;9.182;2023-03-19T01:59:40;99548.34;;;8.00;82.29
12594;BME280;6362;50.208;9.182;2023-03-19T02:05:05;99537.13;;;7.96;82.08
12594;BME280;6362;50.208;9.182;2023-03-19T02:07:33;99543.16;;;7.98;82.04
12594;BME280;6362;50.208;9.182;2023-03-19T02:10:00;99534.44;;;8.16;81.55
12594;BME280;6362;50.208;9.182;2023-03-19T02:12:28;99537.00;;;8.30;81.13
12594;BME280;6362;50.208;9.182;2023-03-19T02:14:53;99542.19;;;8.39;80.69
12594;BME280;6362;50.208;9.182;2023-03-19T02:17:20;99549.94;;;8.39;80.15
12594;BME280;6362;50.208;9.182;2023-03-19T02:22:25;99539.69;;;8.05;81.37
12594;BME280;6362;50.208;9.182;2023-03-19T02:24:58;99545.75;;;7.97;81.28
12594;BME280;6362;50.208;9.182;2023-03-19T02:27:26;99543.19;;;7.90;81.83
12594;BME280;6362;50.208;9.182;2023-03-19T02:29:52;99537.16;;;7.85;82.19
12594;BME280;6362;50.208;9.182;2023-03-19T02:32:17;99537.19;;;7.79;82.45
12594;BME280;6362;50.208;9.182;2023-03-19T02:34:43;99538.06;;;7.75;82.79
12594;BME280;6362;50.208;9.182;2023-03-19T02:37:21;99545.81;;;7.77;82.81
12594;BME280;6362;50.208;9.182;2023-03-19T02:39:54;99543.22;;;7.84;82.55
12594;BME280;6362;50.208;9.182;2023-03-19T02:42:23;99546.69;;;7.79;82.64
12594;BME280;6362;50.208;9.182;2023-03-19T02:44:51;99540.66;;;7.75;82.51
12594;BME280;6362;50.208;9.182;2023-03-19T02:47:17;99541.53;;;7.73;82.75
12594;BME280;6362;50.208;9.182;2023-03-19T02:49:42;99543.25;;;7.69;82.69
12594;BME280;6362;50.208;9.182;2023-03-19T02:52:08;99548.38;;;7.81;82.56
12594;BME280;6362;50.208;9.182;2023-03-19T02:54:33;99539.72;;;8.01;81.52
12594;BME280;6362;50.208;9.182;2023-03-19T02:56:59;99544.94;;;7.90;82.05
12594;BME280;6362;50.208;9.182;2023-03-19T02:59:25;99545.78;;;7.86;81.96
12594;BME280;6362;50.208;9.182;2023-03-19T03:01:51;99540.63;;;7.86;81.81
12594;BME280;6362;50.208;9.182;2023-03-19T03:04:16;99544.97;;;7.73;82.20
12594;BME280;6362;50.208;9.182;2023-03-19T03:06:42;99545.81;;;7.80;82.34
12594;BME280;6362;50.208;9.182;2023-03-19T03:09:09;99549.28;;;7.79;82.52
12594;BME280;6362;50.208;9.182;2023-03-19T03:11:35;99548.41;;;7.66;82.62
12594;BME280;6362;50.208;9.182;2023-03-19T03:14:00;99551.91;;;7.62;82.81
12594;BME280;6362;50.208;9.182;2023-03-19T03:16:26;99561.38;;;7.60;82.96
12594;BME280;6362;50.208;9.182;2023-03-19T03:18:51;99554.50;;;7.57;83.10
12594;BME280;6362;50.208;9.182;2023-03-19T03:21:17;99560.50;;;7.70;82.65
12594;BME280;6362;50.208;9.182;2023-03-19T03:23:45;99563.09;;;7.68;82.89
12594;BME280;6362;50.208;9.182;2023-03-19T03:26:11;99564.84;;;7.62;82.85
12594;BME280;6362;50.208;9.182;2023-03-19T03:28:36;99562.25;;;7.57;83.29
12594;BME280;6362;50.208;9.182;2023-03-19T03:31:02;99567.41;;;7.54;83.33
12594;BME280;6362;50.208;9.182;2023-03-19T03:33:28;99559.69;;;7.51;83.47
12594;BME280;6362;50.208;9.182;2023-03-19T03:35:54;99563.97;;;7.48;83.36
12594;BME280;6362;50.208;9.182;2023-03-19T03:38:20;99563.97;;;7.60;83.69
12594;BME280;6362;50.208;9.182;2023-03-19T03:40:51;99566.56;;;7.57;83.45
12594;BME280;6362;50.208;9.182;2023-03-19T03:43:17;99558.78;;;7.49;83.05
12594;BME280;6362;50.208;9.182;2023-03-19T03:45:45;99561.41;;;7.45;83.58
12594;BME280;6362;50.208;9.182;2023-03-19T03:48:12;99565.72;;;7.43;83.50
12594;BME280;6362;50.208;9.182;2023-03-19T03:50:38;99569.13;;;7.69;83.43
12594;BME280;6362;50.208;9.182;2023-03-19T03:53:03;99573.41;;;7.81;82.18
12594;BME280;6362;50.208;9.182;2023-03-19T03:55:29;99570.84;;;7.68;82.08
12594;BME280;6362;50.208;9.182;2023-03-19T03:57:56;99572.63;;;7.51;82.53
12594;BME280;6362;50.208;9.182;2023-03-19T04:00:22;99574.34;;;7.41;82.98
12594;BME280;6362;50.208;9.182;2023-03-19T04:02:48;99575.19;;;7.36;83.53
12594;BME280;6362;50.208;9.182;2023-03-19T04:05:14;99570.88;;;7.27;83.67
12594;BME280;6362;50.208;9.182;2023-03-19T04:07:39;99576.06;;;7.23;83.93
12594;BME280;6362;50.208;9.182;2023-03-19T04:10:05;99574.34;;;7.28;83.82
12594;BME280;6362;50.208;9.182;2023-03-19T04:12:31;99574.31;;;7.22;83.90
12594;BME280;6362;50.208;9.182;2023-03-19T04:14:57;99569.19;;;7.17;84.21
12594;BME280;6362;50.208;9.182;2023-03-19T04:17:22;99563.13;;;7.18;83.84
12594;BME280;6362;50.208;9.182;2023-03-19T04:19:48;99571.75;;;7.12;83.58
12594;BME280;6362;50.208;9.182;2023-03-19T04:22:14;99573.47;;;7.09;84.01
12594;BME280;6362;50.208;9.182;2023-03-19T04:24:40;99570.03;;;7.08;83.97
12594;BME280;6362;50.208;9.182;2023-03-19T04:27:06;99567.44;;;7.10;84.05
12594;BME280;6362;50.208;9.182;2023-03-19T04:29:32;99572.59;;;7.14;84.38
12594;BME280;6362;50.208;9.182;2023-03-19T04:31:58;99571.75;;;7.08;84.45
12594;BME280;6362;50.208;9.182;2023-03-19T04:34:23;99576.06;;;7.01;84.34
12594;BME280;6362;50.208;9.182;2023-03-19T04:36:49;99575.19;;;6.98;84.88
12594;BME280;6362;50.208;9.182;2023-03-19T04:39:16;99585.53;;;6.98;84.63
12594;BME280;6362;50.208;9.182;2023-03-19T04:41:42;99584.66;;;7.09;84.81
12594;BME280;6362;50.208;9.182;2023-03-19T04:44:08;99582.09;;;7.06;84.50
12594;BME280;6362;50.208;9.182;2023-03-19T04:46:33;99587.25;;;7.03;84.38
12594;BME280;6362;50.208;9.182;2023-03-19T04:48:59;99588.97;;;7.01;84.84
12594;BME280;6362;50.208;9.182;2023-03-19T04:51:25;99589.00;;;7.00;84.81
12594;BME280;6362;50.208;9.182;2023-03-19T04:53:51;99589.81;;;6.99;84.62
12594;BME280;6362;50.208;9.182;2023-03-19T04:56:17;99597.59;;;6.99;84.34
12594;BME280;6362;50.208;9.182;2023-03-19T04:58:43;99594.16;;;7.00;84.66
12594;BME280;6362;50.208;9.182;2023-03-19T05:01:08;99599.31;;;7.03;84.56
12594;BME280;6362;50.208;9.182;2023-03-19T05:03:34;99589.84;;;7.08;84.19
12594;BME280;6362;50.208;9.182;2023-03-19T05:06:00;99602.78;;;7.12;84.35
12594;BME280;6362;50.208;9.182;2023-03-19T05:08:25;99605.41;;;7.34;83.89
12594;BME280;6362;50.208;9.182;2023-03-19T05:10:51;99607.09;;;7.41;83.27
12594;BME280;6362;50.208;9.182;2023-03-19T05:13:17;99610.56;;;7.28;83.38
12594;BME280;6362;50.208;9.182;2023-03-19T05:15:43;99608.81;;;7.27;83.50
12594;BME280;6362;50.208;9.182;2023-03-19T05:18:11;99609.69;;;7.24;83.55
12594;BME280;6362;50.208;9.182;2023-03-19T05:20:37;99613.13;;;7.20;84.10
12594;BME280;6362;50.208;9.182;2023-03-19T05:23:03;99616.56;;;7.21;84.28
12594;BME280;6362;50.208;9.182;2023-03-19T05:25:28;99624.34;;;7.21;84.22
12594;BME280;6362;50.208;9.182;2023-03-19T05:27:54;99621.75;;;7.25;84.34
12594;BME280;6362;50.208;9.182;2023-03-19T05:30:20;99623.47;;;7.25;84.34
12594;BME280;6362;50.208;9.182;2023-03-19T05:32:45;99619.16;;;7.25;84.13
12594;BME280;6362;50.208;9.182;2023-03-19T05:35:12;99617.44;;;7.27;83.89
12594;BME280;6362;50.208;9.182;2023-03-19T05:37:38;99626.06;;;7.31;84.05
12594;BME280;6362;50.208;9.182;2023-03-19T05:40:05;99635.56;;;7.32;83.84
12594;BME280;6362;50.208;9.182;2023-03-19T05:42:31;99637.28;;;7.53;82.87
12594;BME280;6362;50.208;9.182;2023-03-19T05:44:56;99644.19;;;7.51;82.82
12594;BME280;6362;50.208;9.182;2023-03-19T05:47:22;99637.28;;;7.47;83.02
12594;BME280;6362;50.208;9.182;2023-03-19T05:49:47;99639.88;;;7.42;82.95
12594;BME280;6362;50.208;9.182;2023-03-19T05:52:13;99649.38;;;7.40;83.23
12594;BME280;6362;50.208;9.182;2023-03-19T05:54:39;99647.66;;;7.39;83.37
12594;BME280;6362;50.208;9.182;2023-03-19T05:57:05;99654.53;;;7.40;83.42
12594;BME280;6362;50.208;9.182;2023-03-19T05:59:32;99653.69;;;7.41;83.53
12594;BME280;6362;50.208;9.182;2023-03-19T06:01:58;99658.84;;;7.41;83.38
12594;BME280;6362;50.208;9.182;2023-03-19T06:04:23;99664.88;;;7.48;83.65
12594;BME280;6362;50.208;9.182;2023-03-19T06:06:50;99663.19;;;7.62;82.06
12594;BME280;6362;50.208;9.182;2023-03-19T06:09:15;99663.16;;;7.54;82.79
12594;BME280;6362;50.208;9.182;2023-03-19T06:11:41;99669.19;;;7.55;82.96
12594;BME280;6362;50.208;9.182;2023-03-19T06:14:07;99667.50;;;7.51;83.09
12594;BME280;6362;50.208;9.182;2023-03-19T06:16:32;99667.47;;;7.60;82.43
12594;BME280;6362;50.208;9.182;2023-03-19T06:18:58;99666.63;;;7.56;83.04
12594;BME280;6362;50.208;9.182;2023-03-19T06:21:24;99673.50;;;7.59;83.19
12594;BME280;6362;50.208;9.182;2023-03-19T06:23:54;99680.41;;;7.60;83.02
12594;BME280;6362;50.208;9.182;2023-03-19T06:26:20;99672.66;;;7.63;83.28
12594;BME280;6362;50.208;9.182;2023-03-19T06:28:45;99676.97;;;7.70;82.97
12594;BME280;6362;50.208;9.182;2023-03-19T06:31:11;99691.66;;;7.74;83.09
12594;BME280;6362;50.208;9.182;2023-03-19T06:33:36;99677.84;;;7.80;83.08
12594;BME280;6362;50.208;9.182;2023-03-19T06:36:01;99690.78;;;7.84;82.81
12594;BME280;6362;50.208;9.182;2023-03-19T06:38:27;99691.66;;;7.89;82.64
12594;BME280;6362;50.208;9.182;2023-03-19T06:40:52;99695.94;;;7.93;82.21
12594;BME280;6362;50.208;9.182;2023-03-19T06:43:18;99701.13;;;8.00;82.36
12594;BME280;6362;50.208;9.182;2023-03-19T06:45:44;99689.88;;;8.04;82.41
12594;BME280;6362;50.208;9.182;2023-03-19T06:48:09;99699.41;;;8.06;82.22
12594;BME280;6362;50.208;9.182;2023-03-19T06:50:34;99700.25;;;8.13;81.94
12594;BME280;6362;50.208;9.182;2023-03-19T06:53:00;99698.53;;;8.16;81.95
12594;BME280;6362;50.208;9.182;2023-03-19T06:55:26;99699.38;;;8.23;81.72
12594;BME280;6362;50.208;9.182;2023-03-19T06:57:51;99702.81;;;8.30;81.79
12594;BME280;6362;50.208;9.182;2023-03-19T07:00:17;99707.13;;;8.37;81.85
12594;BME280;6362;50.208;9.182;2023-03-19T07:02:44;99705.41;;;8.46;81.53
12594;BME280;6362;50.208;9.182;2023-03-19T07:05:09;99706.22;;;8.56;80.99
12594;BME280;6362;50.208;9.182;2023-03-19T07:07:35;99706.19;;;8.65;80.51
12594;BME280;6362;50.208;9.182;2023-03-19T07:10:01;99712.19;;;8.80;79.71
12594;BME280;6362;50.208;9.182;2023-03-19T07:12:27;99718.19;;;8.92;79.25
12594;BME280;6362;50.208;9.182;2023-03-19T07:14:53;99713.84;;;8.97;79.67
12594;BME280;6362;50.208;9.182;2023-03-19T07:17:21;99724.19;;;9.05;79.55
12594;BME280;6362;50.208;9.182;2023-03-19T07:19:47;99723.19;;;9.29;77.82
12594;BME280;6362;50.208;9.182;2023-03-19T07:22:12;99726.63;;;9.33;77.40
12594;BME280;6362;50.208;9.182;2023-03-19T07:24:38;99718.03;;;9.28;77.39
12594;BME280;6362;50.208;9.182;2023-03-19T07:27:03;99731.91;;;9.22;78.03
12594;BME280;6362;50.208;9.182;2023-03-19T07:29:29;99730.16;;;9.21;78.59
12594;BME280;6362;50.208;9.182;2023-03-19T07:31:54;99730.16;;;9.22;78.14
12594;BME280;6362;50.208;9.182;2023-03-19T07:34:20;99724.91;;;9.27;78.76
12594;BME280;6362;50.208;9.182;2023-03-19T07:36:45;99725.78;;;9.34;78.03
12594;BME280;6362;50.208;9.182;2023-03-19T07:39:11;99725.72;;;9.41;78.38
12594;BME280;6362;50.208;9.182;2023-03-19T07:41:37;99729.97;;;9.51;78.23
12594;BME280;6362;50.208;9.182;2023-03-19T07:44:02;99729.94;;;9.61;78.17
12594;BME280;6362;50.208;9.182;2023-03-19T07:46:28;99728.97;;;9.72;77.96
12594;BME280;6362;50.208;9.182;2023-03-19T07:48:53;99730.59;;;9.83;77.59
12594;BME280;6362;50.208;9.182;2023-03-19T07:51:19;99726.22;;;9.94;77.20
12594;BME280;6362;50.208;9.182;2023-03-19T07:53:44;99730.44;;;10.07;77.06
12594;BME280;6362;50.208;9.182;2023-03-19T07:56:11;99727.69;;;10.25;76.29
12594;BME280;6362;50.208;9.182;2023-03-19T07:58:36;99729.25;;;10.42;75.43
12594;BME280;6362;50.208;9.182;2023-03-19T08:01:02;99731.78;;;10.51;74.40
12594;BME280;6362;50.208;9.182;2023-03-19T08:03:27;99727.41;;;10.53;75.03
12594;BME280;6362;50.208;9.182;2023-03-19T08:05:53;99735.16;;;10.57;75.35
12594;BME280;6362;50.208;9.182;2023-03-19T08:08:19;99734.22;;;10.66;75.20
12594;BME280;6362;50.208;9.182;2023-03-19T08:10:45;99737.47;;;10.82;75.26
12594;BME280;6362;50.208;9.182;2023-03-19T08:13:12;99735.53;;;11.01;74.75
12594;BME280;6362;50.208;9.182;2023-03-19T08:15:38;99740.47;;;11.21;74.64
12594;BME280;6362;50.208;9.182;2023-03-19T08:18:05;99736.75;;;11.40;74.16
12594;BME280;6362;50.208;9.182;2023-03-19T08:20:31;99733.84;;;11.60;73.73
12594;BME280;6362;50.208;9.182;2023-03-19T08:22:57;99730.97;;;11.78;72.30
12594;BME280;6362;50.208;9.182;2023-03-19T08:25:23;99734.22;;;11.93;70.38
12594;BME280;6362;50.208;9.182;2023-03-19T08:27:48;99740.13;;;12.04;69.97
12594;BME280;6362;50.208;9.182;2023-03-19T08:30:14;99742.59;;;12.13;69.62
12594;BME280;6362;50.208;9.182;2023-03-19T08:32:41;99740.88;;;12.12;69.22
12594;BME280;6362;50.208;9.182;2023-03-19T08:35:09;99743.31;;;12.21;68.25
12594;BME280;6362;50.208;9.182;2023-03-19T08:37:35;99743.13;;;12.33;68.08
12594;BME280;6362;50.208;9.182;2023-03-19T08:40:01;99737.56;;;12.52;67.65
12594;BME280;6362;50.208;9.182;2023-03-19T08:42:27;99751.97;;;12.71;66.92
12594;BME280;6362;50.208;9.182;2023-03-19T08:44:53;99745.44;;;12.93;66.25
12594;BME280;6362;50.208;9.182;2023-03-19T08:47:18;99752.06;;;13.10;66.04
12594;BME280;6362;50.208;9.182;2023-03-19T08:49:49;99742.13;;;13.29;62.36
12594;BME280;6362;50.208;9.182;2023-03-19T08:52:14;99745.13;;;13.51;60.49
12594;BME280;6362;50.208;9.182;2023-03-19T08:54:39;99753.59;;;13.62;61.09
12594;BME280;6362;50.208;9.182;2023-03-19T08:57:05;99745.50;;;13.72;57.39
12594;BME280;6362;50.208;9.182;2023-03-19T08:59:30;99740.91;;;13.82;56.57
12594;BME280;6362;50.208;9.182;2023-03-19T09:01:56;99744.53;;;14.12;55.05
12594;BME280;6362;50.208;9.182;2023-03-19T09:04:22;99743.03;;;14.36;54.57
12594;BME280;6362;50.208;9.182;2023-03-19T09:06:48;99738.81;;;14.66;52.62
12594;BME280;6362;50.208;9.182;2023-03-19T09:09:21;99743.03;;;15.01;52.63
12594;BME280;6362;50.208;9.182;2023-03-19T09:11:47;99747.75;;;15.48;53.16
12594;BME280;6362;50.208;9.182;2023-03-19T09:14:13;99743.19;;;15.84;50.06
12594;BME280;6362;50.208;9.182;2023-03-19T09:16:41;99742.44;;;16.32;48.91
12594;BME280;6362;50.208;9.182;2023-03-19T09:19:06;99747.44;;;16.64;49.41
12594;BME280;6362;50.208;9.182;2023-03-19T09:21:32;99749.47;;;16.83;47.74
12594;BME280;6362;50.208;9.182;2023-03-19T09:23:58;99752.94;;;16.83;47.48
12594;BME280;6362;50.208;9.182;2023-03-19T09:26:23;99741.84;;;16.75;48.88
12594;BME280;6362;50.208;9.182;2023-03-19T09:28:48;99750.06;;;16.64;48.39
12594;BME280;6362;50.208;9.182;2023-03-19T09:31:14;99751.44;;;16.76;47.48
12594;BME280;6362;50.208;9.182;2023-03-19T09:33:39;99744.31;;;16.55;46.80
12594;BME280;6362;50.208;9.182;2023-03-19T09:36:05;99755.44;;;16.36;48.01
12594;BME280;6362;50.208;9.182;2023-03-19T09:38:31;99751.22;;;16.06;48.78
12594;BME280;6362;50.208;9.182;2023-03-19T09:46:16;99757.56;;;15.71;48.54
12594;BME280;6362;50.208;9.182;2023-03-19T09:48:50;99748.81;;;15.72;50.05
12594;BME280;6362;50.208;9.182;2023-03-19T09:51:27;99758.22;;;15.79;49.06
12594;BME280;6362;50.208;9.182;2023-03-19T09:54:03;99754.63;;;15.52;48.75
12594;BME280;6362;50.208;9.182;2023-03-19T09:56:31;99753.66;;;15.56;48.82
12594;BME280;6362;50.208;9.182;2023-03-19T09:58:57;99750.84;;;15.90;49.06
12594;BME280;6362;50.208;9.182;2023-03-19T10:01:34;99741.31;;;16.14;47.71
12594;BME280;6362;50.208;9.182;2023-03-19T10:04:39;99745.53;;;16.45;47.49
12594;BME280;6362;50.208;9.182;2023-03-19T10:12:23;99753.69;;;16.87;46.17
12594;BME280;6362;50.208;9.182;2023-03-19T10:20:18;99743.28;;;17.98;43.51
12594;BME280;6362;50.208;9.182;2023-03-19T10:22:53;99743.53;;;17.92;43.65
12594;BME280;6362;50.208;9.182;2023-03-19T10:25:26;99740.25;;;18.29;43.60
12594;BME280;6362;50.208;9.182;2023-03-19T10:27:59;99746.53;;;18.88;42.53
12594;BME280;6362;50.208;9.182;2023-03-19T10:30:25;99741.47;;;19.02;41.33
12594;BME280;6362;50.208;9.182;2023-03-19T10:33:04;99736.19;;;19.02;41.63
12594;BME280;6362;50.208;9.182;2023-03-19T10:35:48;99738.53;;;18.89;41.13
12594;BME280;6362;50.208;9.182;2023-03-19T10:38:22;99733.41;;;18.45;41.69
12594;BME280;6362;50.208;9.182;2023-03-19T10:43:38;99739.63;;;18.02;43.80
12594;BME280;6362;50.208;9.182;2023-03-19T10:46:04;99731.63;;;18.46;43.41
12594;BME280;6362;50.208;9.182;2023-03-19T10:48:29;99739.41;;;18.49;42.54
12594;BME280;6362;50.208;9.182;2023-03-19T10:51:00;99730.34;;;18.95;41.73
12594;BME280;6362;50.208;9.182;2023-03-19T10:56:04;99732.03;;;18.78;41.67
12594;BME280;6362;50.208;9.182;2023-03-19T10:58:33;99737.53;;;18.10;42.79
12594;BME280;6362;50.208;9.182;2023-03-19T11:01:08;99740.53;;;17.57;43.68
12594;BME280;6362;50.208;9.182;2023-03-19T11:03:37;99735.91;;;17.40;44.84
12594;BME280;6362;50.208;9.182;2023-03-19T11:08:28;99736.03;;;17.37;44.96
12594;BME280;6362;50.208;9.182;2023-03-19T11:10:53;99732.31;;;17.65;44.20
12594;BME280;6362;50.208;9.182;2023-03-19T11:13:23;99740.31;;;17.40;44.72
12594;BME280;6362;50.208;9.182;2023-03-19T11:15:49;99736.03;;;17.14;45.89
12594;BME280;6362;50.208;9.182;2023-03-19T11:18:38;99736.03;;;17.14;45.15
12594;BME280;6362;50.208;9.182;2023-03-19T11:21:24;99733.13;;;16.98;45.39
12594;BME280;6362;50.208;9.182;2023-03-19T11:23:58;99738.75;;;16.89;46.18
12594;BME280;6362;50.208;9.182;2023-03-19T11:26:24;99735.13;;;16.67;46.17
12594;BME280;6362;50.208;9.182;2023-03-19T11:28:53;99729.50;;;16.52;46.39
12594;BME280;6362;50.208;9.182;2023-03-19T11:34:32;99717.66;;;17.81;44.05
12594;BME280;6362;50.208;9.182;2023-03-19T11:40:11;99723.41;;;17.69;42.98
12594;BME280;6362;50.208;9.182;2023-03-19T11:45:40;99718.66;;;17.79;43.38
12594;BME280;6362;50.208;9.182;2023-03-19T11:51:52;99719.97;;;17.67;43.63
12594;BME280;6362;50.208;9.182;2023-03-19T11:57:07;99711.59;;;19.58;40.47
12594;BME280;6362;50.208;9.182;2023-03-19T12:04:48;99709.13;;;19.55;39.64
12594;BME280;6362;50.208;9.182;2023-03-19T12:12:37;99707.06;;;18.66;42.40
12594;BME280;6362;50.208;9.182;2023-03-19T12:15:08;99706.72;;;18.94;41.62
12594;BME280;6362;50.208;9.182;2023-03-19T12:29:28;99705.84;;;16.79;45.66
12594;BME280;6362;50.208;9.182;2023-03-19T12:32:15;99706.72;;;16.53;46.17
12594;BME280;6362;50.208;9.182;2023-03-19T12:35:13;99703.97;;;16.32;46.62
12594;BME280;6362;50.208;9.182;2023-03-19T12:37:45;99696.66;;;16.16;46.82
12594;BME280;6362;50.208;9.182;2023-03-19T12:40:44;99694.72;;;16.21;46.87
12594;BME280;6362;50.208;9.182;2023-03-19T12:43:34;99699.13;;;16.20;47.00
12594;BME280;6362;50.208;9.182;2023-03-19T12:46:13;99694.13;;;16.37;47.01
12594;BME280;6362;50.208;9.182;2023-03-19T12:48:47;99697.94;;;16.54;46.24
12594;BME280;6362;50.208;9.182;2023-03-19T12:51:16;99700.03;;;16.94;46.22
12594;BME280;6362;50.208;9.182;2023-03-19T12:56:42;99681.06;;;17.97;45.13
12594;BME280;6362;50.208;9.182;2023-03-19T13:02:15;99687.16;;;20.43;39.19
12594;BME280;6362;50.208;9.182;2023-03-19T13:04:52;99682.31;;;20.68;37.03
12594;BME280;6362;50.208;9.182;2023-03-19T13:07:30;99679.66;;;20.18;37.85
12594;BME280;6362;50.208;9.182;2023-03-19T13:10:31;99679.44;;;19.69;38.80
12594;BME280;6362;50.208;9.182;2023-03-19T13:12:51;99680.94;;;19.01;40.32
12594;BME280;6362;50.208;9.182;2023-03-19T13:15:28;99681.63;;;18.85;40.34
12594;BME280;6362;50.208;9.182;2023-03-19T13:23:13;99688.28;;;17.92;41.43
12594;BME280;6362;50.208;9.182;2023-03-19T13:25:44;99685.91;;;17.86;42.50
12594;BME280;6362;50.208;9.182;2023-03-19T13:28:26;99680.47;;;17.90;41.94
12594;BME280;6362;50.208;9.182;2023-03-19T13:31:07;99684.38;;;17.80;41.99
12594;BME280;6362;50.208;9.182;2023-03-19T13:33:50;99683.19;;;17.65;41.69
12594;BME280;6362;50.208;9.182;2023-03-19T13:36:17;99675.53;;;17.61;42.38
12594;BME280;6362;50.208;9.182;2023-03-19T13:38:48;99687.69;;;17.41;42.44
12594;BME280;6362;50.208;9.182;2023-03-19T13:44:32;99688.00;;;17.34;40.96
12594;BME280;6362;50.208;9.182;2023-03-19T13:47:48;99689.22;;;17.91;39.73
12594;BME280;6362;50.208;9.182;2023-03-19T13:58:04;99682.81;;;20.42;35.72
12594;BME280;6362;50.208;9.182;2023-03-19T14:03:34;99682.56;;;18.03;39.89
12594;BME280;6362;50.208;9.182;2023-03-19T14:06:00;99683.50;;;17.36;42.72
12594;BME280;6362;50.208;9.182;2023-03-19T14:08:43;99694.72;;;16.96;43.64
12594;BME280;6362;50.208;9.182;2023-03-19T14:11:21;99693.13;;;16.67;43.84
12594;BME280;6362;50.208;9.182;2023-03-19T14:13:48;99687.44;;;16.79;43.79
12594;BME280;6362;50.208;9.182;2023-03-19T14:16:21;99692.75;;;17.01;42.99
12594;BME280;6362;50.208;9.182;2023-03-19T14:18:48;99689.88;;;17.30;42.24
12594;BME280;6362;50.208;9.182;2023-03-19T14:21:45;99680.88;;;18.02;41.33
12594;BME280;6362;50.208;9.182;2023-03-19T14:27:17;99682.59;;;17.59;41.03
12594;BME280;6362;50.208;9.182;2023-03-19T14:29:43;99688.53;;;17.42;42.56
12594;BME280;6362;50.208;9.182;2023-03-19T14:32:15;99692.66;;;17.26;44.31
12594;BME280;6362;50.208;9.182;2023-03-19T14:34:43;99689.84;;;17.08;45.26
12594;BME280;6362;50.208;9.182;2023-03-19T14:37:22;99690.53;;;16.90;46.69
12594;BME280;6362;50.208;9.182;2023-03-19T14:39:54;99697.22;;;16.50;48.87
12594;BME280;6362;50.208;9.182;2023-03-19T14:42:26;99702.53;;;15.97;51.19
12594;BME280;6362;50.208;9.182;2023-03-19T14:45:07;99702.28;;;15.78;52.53
12594;BME280;6362;50.208;9.182;2023-03-19T14:53:42;99714.72;;;15.44;53.43
12594;BME280;6362;50.208;9.182;2023-03-19T14:56:14;99706.50;;;15.54;52.69
12594;BME280;6362;50.208;9.182;2023-03-19T14:58:57;99714.13;;;15.62;52.78
12594;BME280;6362;50.208;9.182;2023-03-19T15:01:25;99720.88;;;15.71;52.67
12594;BME280;6362;50.208;9.182;2023-03-19T15:04:02;99714.81;;;15.69;52.08
12594;BME280;6362;50.208;9.182;2023-03-19T15:06:56;99716.38;;;15.74;52.12